createdAt,value
2023-01-29T00:01:33.871Z,30.5
2023-01-29T00:07:17.998Z,28.5
2023-01-29T00:13:01.869Z,29.3
2023-01-29T00:18:46.153Z,33.2
2023-01-29T00:24:31.055Z,28.2
2023-01-29T00:30:17.363Z,30.9
2023-01-29T00:36:04.353Z,30.7
2023-01-29T00:41:48.368Z,31.6
2023-01-29T00:47:32.345Z,30.3
2023-01-29T00:53:16.288Z,29.3
2023-01-29T00:59:00.234Z,31.7
2023-01-29T01:04:47.419Z,30.5
2023-01-29T01:10:32.661Z,30.4
2023-01-29T01:16:18.530Z,30.6
2023-01-29T01:22:02.308Z,30.5
2023-01-29T01:27:46.164Z,28.7
2023-01-29T01:33:30.237Z,31.3
2023-01-29T01:39:14.151Z,30.8
2023-01-29T01:44:59.539Z,32.9
2023-01-29T01:50:45.720Z,31.3
2023-01-29T01:56:32.141Z,33.3
2023-01-29T02:02:16.905Z,31.3
2023-01-29T02:08:02.438Z,33.2
2023-01-29T02:13:46.839Z,32.7
2023-01-29T02:19:36.294Z,31.8
2023-01-29T02:25:40.571Z,34.9
2023-01-29T02:31:30.690Z,33.3
2023-01-29T02:37:16.377Z,32.3
2023-01-29T02:43:04.926Z,37.2
2023-01-29T02:48:53.691Z,34.7
2023-01-29T02:54:42.562Z,32.8
2023-01-29T03:00:28.254Z,33.5
2023-01-29T03:06:14.499Z,32.6
2023-01-29T03:12:00.936Z,34.1
2023-01-29T03:17:48.241Z,32.5
2023-01-29T03:23:34.400Z,34
2023-01-29T03:29:18.349Z,33.4
2023-01-29T03:35:06.239Z,32.5
2023-01-29T03:40:53.225Z,32.6
2023-01-29T03:46:40.773Z,33.6
2023-01-29T03:52:27.775Z,34.7
2023-01-29T03:58:16.579Z,35.4
2023-01-29T04:04:04.378Z,35.1
2023-01-29T04:09:51.095Z,34.1
2023-01-29T04:15:39.086Z,33.1
2023-01-29T04:21:38.029Z,34.3
2023-01-29T04:27:32.489Z,37.7
2023-01-29T04:33:29.797Z,34.7
2023-01-29T04:39:19.454Z,36.8
2023-01-29T04:45:07.810Z,33.6
2023-01-29T04:50:54.879Z,35.6
2023-01-29T04:56:43.646Z,37.2
2023-01-29T05:02:37.035Z,37.1
2023-01-29T05:08:22.709Z,34.9
2023-01-29T05:14:09.275Z,35.5
2023-01-29T05:19:53.077Z,35.6
2023-01-29T05:25:36.931Z,32.3
2023-01-29T05:31:21.469Z,34.8
2023-01-29T05:37:05.524Z,34.5
2023-01-29T05:42:49.342Z,35.8
2023-01-29T05:48:33.073Z,37.2
2023-01-29T05:54:18.022Z,34.9
2023-01-29T06:00:01.969Z,32.7
2023-01-29T06:05:46.233Z,34.4
2023-01-29T06:11:30.222Z,32.6
2023-01-29T06:17:14.137Z,33.4
2023-01-29T06:22:58.877Z,34.4
2023-01-29T06:28:42.724Z,32.2
2023-01-29T06:34:27.412Z,32.4
2023-01-29T06:40:18.990Z,34
2023-01-29T06:46:06.178Z,34.4
2023-01-29T06:51:50.152Z,32.7
2023-01-29T06:57:35.108Z,34.9
2023-01-29T07:03:19.051Z,31.4
2023-01-29T07:09:02.860Z,31.9
2023-01-29T07:14:46.659Z,32.8
2023-01-29T07:20:34.038Z,32.3
2023-01-29T07:26:18.313Z,33.4
2023-01-29T07:32:10.094Z,35
2023-01-29T07:38:06.652Z,34.1
2023-01-29T07:43:50.497Z,32.4
2023-01-29T07:49:34.247Z,32.4
2023-01-29T07:55:18.306Z,33
2023-01-29T08:01:02.192Z,39.8
2023-01-29T08:06:47.218Z,36
2023-01-29T08:12:32.223Z,32.9
2023-01-29T08:18:28.347Z,35.1
2023-01-29T08:24:12.454Z,35.1
2023-01-29T08:29:56.112Z,34.4
2023-01-29T08:35:40.179Z,35.8
2023-01-29T08:41:23.945Z,40.4
2023-01-29T08:47:07.713Z,37.9
2023-01-29T08:52:51.740Z,40.6
2023-01-29T08:58:35.466Z,41.9
2023-01-29T09:04:19.267Z,39
2023-01-29T09:10:02.970Z,38.2
2023-01-29T09:15:49.805Z,36.5
2023-01-29T09:21:33.527Z,38.1
2023-01-29T09:27:17.230Z,36.6
2023-01-29T09:33:02.610Z,35.5
2023-01-29T09:38:51.745Z,37.7
2023-01-29T09:44:45.167Z,40.2
2023-01-29T09:50:30.771Z,36.5
2023-01-29T09:56:17.135Z,36.6
2023-01-29T10:02:05.571Z,37.9
2023-01-29T10:07:57.765Z,38.4
2023-01-29T10:13:47.390Z,36.8
2023-01-29T10:19:47.116Z,35.4
2023-01-29T10:25:31.126Z,36
2023-01-29T10:31:22.870Z,34.5
2023-01-29T10:37:09.130Z,37.4
2023-01-29T10:42:58.134Z,36.1
2023-01-29T10:48:45.520Z,35.5
2023-01-29T10:54:37.813Z,38.6
2023-01-29T11:00:24.488Z,34.3
2023-01-29T11:06:11.684Z,33
2023-01-29T11:11:57.100Z,33.8
2023-01-29T11:17:42.832Z,32.4
2023-01-29T11:23:35.891Z,29.6
2023-01-29T11:29:43.868Z,111.1
2023-01-29T11:35:28.471Z,92.2
2023-01-29T11:41:17.921Z,76.6
2023-01-29T11:47:07.247Z,61.5
2023-01-29T11:52:54.445Z,57.4
2023-01-29T11:58:38.761Z,58.1
2023-01-29T12:04:25.575Z,50.1
2023-01-29T12:10:18.113Z,54.2
2023-01-29T12:16:15.613Z,41.9
2023-01-29T12:22:13.440Z,43.4
2023-01-29T12:28:00.267Z,37
2023-01-29T12:33:49.047Z,36.6
2023-01-29T12:39:32.965Z,39.7
2023-01-29T12:45:19.145Z,40.8
2023-01-29T12:51:07.449Z,34.5
2023-01-29T12:56:52.259Z,36.6
2023-01-29T13:02:41.959Z,30.9
2023-01-29T13:08:29.390Z,27.7
2023-01-29T13:14:16.541Z,28.5
2023-01-29T13:20:03.244Z,25
2023-01-29T13:25:47.051Z,26
2023-01-29T13:31:39.552Z,25.8
2023-01-29T13:37:27.251Z,23.8
2023-01-29T13:43:17.265Z,21.7
2023-01-29T13:49:01.379Z,23.8
2023-01-29T13:54:50.473Z,23.6
2023-01-29T14:00:54.447Z,21.8
2023-01-29T14:06:55.035Z,21.5
2023-01-29T14:12:43.698Z,22.5
2023-01-29T14:18:47.813Z,24
2023-01-29T14:24:36.868Z,21.5
2023-01-29T14:30:21.433Z,22.1
2023-01-29T14:36:07.049Z,20.7
2023-01-29T14:41:52.306Z,20.5
2023-01-29T14:47:47.524Z,21.2
2023-01-29T14:53:56.046Z,20
2023-01-29T14:59:41.261Z,20.9
2023-01-29T15:05:27.277Z,23
2023-01-29T15:11:16.325Z,20.3
2023-01-29T15:17:11.384Z,21.7
2023-01-29T15:22:55.260Z,21.5
2023-01-29T15:28:45.218Z,20.7
2023-01-29T15:34:31.362Z,21.2
2023-01-29T15:40:19.630Z,22
2023-01-29T15:46:04.698Z,23.8
2023-01-29T15:51:48.998Z,24
2023-01-29T15:57:35.483Z,23
2023-01-29T16:03:24.537Z,22.5
2023-01-29T16:09:09.793Z,21.6
2023-01-29T16:14:55.738Z,21.9
2023-01-29T16:20:43.163Z,21.5
2023-01-29T16:26:29.259Z,22.4
2023-01-29T16:32:14.443Z,22.7
2023-01-29T16:38:01.479Z,21.6
2023-01-29T16:43:58.806Z,22.7
2023-01-29T16:49:56.335Z,20.7
2023-01-29T16:55:41.941Z,23.6
2023-01-29T17:01:27.122Z,21.7
2023-01-29T17:07:16.266Z,23.9
2023-01-29T17:13:03.565Z,21.6
2023-01-29T17:18:47.470Z,22.2
2023-01-29T17:24:31.114Z,23.2
2023-01-29T17:30:17.031Z,22.5
2023-01-29T17:36:00.860Z,23.3
2023-01-29T17:41:48.199Z,25.4
2023-01-29T17:47:33.491Z,24.3
2023-01-29T17:53:17.269Z,26
2023-01-29T17:59:01.245Z,24.7
2023-01-29T18:04:46.624Z,23.4
2023-01-29T18:10:33.980Z,24.2
2023-01-29T18:16:18.431Z,25.8
2023-01-29T18:22:02.551Z,27.6
2023-01-29T18:27:48.016Z,23.9
2023-01-29T18:33:31.856Z,26.3
2023-01-29T18:39:16.495Z,23.6
2023-01-29T18:45:00.322Z,24.2
2023-01-29T18:50:44.257Z,24.8
2023-01-29T18:56:28.270Z,25.6
2023-01-29T19:02:14.007Z,24.6
2023-01-29T19:07:58.060Z,23.2
2023-01-29T19:13:42.485Z,25
2023-01-29T19:19:26.319Z,26.7
2023-01-29T19:25:11.211Z,26.3
2023-01-29T19:30:55.364Z,26.4
2023-01-29T19:36:39.314Z,28.3
2023-01-29T19:42:23.458Z,25.4
2023-01-29T19:48:07.273Z,25.6
2023-01-29T19:53:52.157Z,26.2
2023-01-29T19:59:36.095Z,26.6
2023-01-29T20:05:21.433Z,27
2023-01-29T20:11:05.393Z,23.6
2023-01-29T20:16:49.240Z,24.5
2023-01-29T20:22:33.061Z,25.5
2023-01-29T20:28:17.731Z,24.1
2023-01-29T20:34:01.561Z,24.9
2023-01-29T20:39:45.564Z,23.7
2023-01-29T20:45:30.397Z,25.2
2023-01-29T20:51:15.004Z,24.6
2023-01-29T20:56:59.237Z,24.2
2023-01-29T21:02:43.144Z,23.5
2023-01-29T21:08:27.558Z,24
2023-01-29T21:14:11.394Z,24.4
2023-01-29T21:19:55.441Z,21.8
2023-01-29T21:25:41.720Z,23.3
2023-01-29T21:31:25.840Z,24.4
2023-01-29T21:37:09.824Z,22.7
2023-01-29T21:42:54.440Z,23.4
2023-01-29T21:48:38.687Z,25.9
2023-01-29T21:54:22.760Z,23.6
2023-01-29T22:00:08.644Z,23.9
2023-01-29T22:05:52.669Z,23.9
2023-01-29T22:11:36.951Z,24.1
2023-01-29T22:17:21.519Z,23.4
2023-01-29T22:23:05.879Z,22
2023-01-29T22:28:49.839Z,22.1
2023-01-29T22:34:33.691Z,20.9
2023-01-29T22:40:19.555Z,22.6
2023-01-29T22:46:03.843Z,23
2023-01-29T22:51:47.734Z,19.8
2023-01-29T22:57:31.798Z,19.5
2023-01-29T23:03:15.861Z,20.5
2023-01-29T23:08:59.692Z,20.7
2023-01-29T23:14:43.638Z,20.6
2023-01-29T23:20:27.688Z,22.9
2023-01-29T23:26:12.808Z,20.9
2023-01-29T23:31:56.812Z,19.5
2023-01-29T23:37:40.653Z,21.5
2023-01-29T23:43:26.196Z,21.2
2023-01-29T23:49:09.923Z,21.7
2023-01-29T23:54:53.737Z,21.3
